createdAt,value
2018-08-31T00:03:14.619Z,2.00
2018-08-31T00:05:58.067Z,1.43
2018-08-31T00:08:37.630Z,2.03
2018-08-31T00:11:30.249Z,1.60
2018-08-31T00:13:58.630Z,2.20
2018-08-31T00:16:26.988Z,1.80
2018-08-31T00:18:55.377Z,1.93
2018-08-31T00:21:23.712Z,1.87
2018-08-31T00:26:04.953Z,1.87
2018-08-31T00:28:44.874Z,1.70
2018-08-31T00:33:42.208Z,1.93
2018-08-31T00:36:22.013Z,1.60
2018-08-31T00:38:59.300Z,2.00
2018-08-31T00:41:36.637Z,1.53
2018-08-31T00:46:16.320Z,1.70
2018-08-31T00:48:44.674Z,2.03
2018-08-31T00:51:13.045Z,1.80
2018-08-31T00:53:41.405Z,2.13
2018-08-31T00:56:09.765Z,1.80
2018-08-31T00:58:38.101Z,1.63
2018-08-31T01:01:06.476Z,1.80
2018-08-31T01:03:34.972Z,1.87
2018-08-31T01:06:03.348Z,1.90
2018-08-31T01:08:31.712Z,1.80
2018-08-31T01:11:00.041Z,2.23
2018-08-31T01:13:28.424Z,1.70
2018-08-31T01:15:56.769Z,2.00
2018-08-31T01:18:25.137Z,2.00
2018-08-31T01:20:53.482Z,2.30
2018-08-31T01:23:21.847Z,1.70
2018-08-31T01:25:50.221Z,1.90
2018-08-31T01:28:18.597Z,1.90
2018-08-31T01:30:46.984Z,1.93
2018-08-31T01:33:15.455Z,2.07
2018-08-31T01:35:43.753Z,2.00
2018-08-31T01:38:12.121Z,1.80
2018-08-31T01:40:40.497Z,2.23
2018-08-31T01:43:08.869Z,2.03
2018-08-31T01:45:37.260Z,2.10
2018-08-31T01:48:05.634Z,2.23
2018-08-31T01:50:33.977Z,2.50
2018-08-31T01:53:02.436Z,2.20
2018-08-31T01:55:30.799Z,2.30
2018-08-31T01:58:00.505Z,2.23
2018-08-31T02:00:28.940Z,2.10
2018-08-31T02:02:57.335Z,2.00
2018-08-31T02:05:25.901Z,2.13
2018-08-31T02:07:54.280Z,2.60
2018-08-31T02:10:22.649Z,2.27
2018-08-31T02:12:51.036Z,2.10
2018-08-31T02:15:19.396Z,2.10
2018-08-31T02:17:47.773Z,2.10
2018-08-31T02:20:16.145Z,2.00
2018-08-31T02:22:44.505Z,2.17
2018-08-31T02:25:12.892Z,2.10
2018-08-31T02:27:41.389Z,2.17
2018-08-31T02:30:09.918Z,2.10
2018-08-31T02:32:38.293Z,1.80
2018-08-31T02:35:06.700Z,1.90
2018-08-31T02:37:35.054Z,2.03
2018-08-31T02:40:03.520Z,2.40
2018-08-31T02:42:31.897Z,2.10
2018-08-31T02:45:00.292Z,1.87
2018-08-31T02:47:28.649Z,2.47
2018-08-31T02:49:57.029Z,2.03
2018-08-31T02:52:25.367Z,1.97
2018-08-31T02:54:53.740Z,1.90
2018-08-31T02:57:22.085Z,2.20
2018-08-31T02:59:50.484Z,2.37
2018-08-31T03:02:18.840Z,2.23
2018-08-31T03:04:47.229Z,2.20
2018-08-31T03:07:15.796Z,2.30
2018-08-31T03:09:44.164Z,2.20
2018-08-31T03:12:12.556Z,2.40
2018-08-31T03:14:40.941Z,1.83
2018-08-31T03:17:09.324Z,2.10
2018-08-31T03:19:37.735Z,2.10
2018-08-31T03:22:06.103Z,2.07
2018-08-31T03:24:34.456Z,2.00
2018-08-31T03:27:02.861Z,2.33
2018-08-31T03:29:31.215Z,2.37
2018-08-31T03:31:59.625Z,2.20
2018-08-31T03:34:28.013Z,1.90
2018-08-31T03:36:56.404Z,2.10
2018-08-31T03:39:24.741Z,2.10
2018-08-31T03:41:53.105Z,1.67
2018-08-31T03:44:21.440Z,2.63
2018-08-31T03:46:49.811Z,2.10
2018-08-31T03:49:18.179Z,2.40
2018-08-31T03:51:46.552Z,2.40
2018-08-31T03:54:14.901Z,2.50
2018-08-31T03:56:43.289Z,1.80
2018-08-31T03:59:11.628Z,2.23
2018-08-31T04:01:40.000Z,2.07
2018-08-31T04:04:08.324Z,2.00
2018-08-31T04:06:36.697Z,2.17
2018-08-31T04:09:06.901Z,2.37
2018-08-31T04:11:35.276Z,2.00
2018-08-31T04:14:03.700Z,2.30
2018-08-31T04:16:32.068Z,2.77
2018-08-31T04:19:04.645Z,2.50
2018-08-31T04:21:33.012Z,2.70
2018-08-31T04:24:01.345Z,2.30
2018-08-31T04:26:29.745Z,2.33
2018-08-31T04:28:58.084Z,2.13
2018-08-31T04:31:26.460Z,2.17
2018-08-31T04:33:54.902Z,2.40
2018-08-31T04:36:23.256Z,2.50
2018-08-31T04:38:51.604Z,2.40
2018-08-31T04:41:20.029Z,2.40
2018-08-31T04:43:48.390Z,2.57
2018-08-31T04:46:16.716Z,2.50
2018-08-31T04:48:45.089Z,2.20
2018-08-31T04:51:13.429Z,2.50
2018-08-31T04:53:41.914Z,2.33
2018-08-31T04:56:10.252Z,2.43
2018-08-31T04:58:38.617Z,2.50
2018-08-31T05:01:06.979Z,2.60
2018-08-31T05:03:35.385Z,2.30
2018-08-31T05:06:03.777Z,2.20
2018-08-31T05:08:32.157Z,2.30
2018-08-31T05:11:00.558Z,2.80
2018-08-31T05:13:28.968Z,2.47
2018-08-31T05:15:57.318Z,2.40
2018-08-31T05:18:25.712Z,2.47
2018-08-31T05:20:54.049Z,2.57
2018-08-31T05:23:22.438Z,2.93
2018-08-31T05:25:50.889Z,3.03
2018-08-31T05:28:19.265Z,2.70
2018-08-31T05:30:47.624Z,2.30
2018-08-31T05:33:16.141Z,2.80
2018-08-31T05:35:44.484Z,2.47
2018-08-31T05:38:12.869Z,3.00
2018-08-31T05:40:41.292Z,2.97
2018-08-31T05:43:09.686Z,2.27
2018-08-31T05:45:38.037Z,2.47
2018-08-31T05:48:06.509Z,2.70
2018-08-31T05:50:34.865Z,2.53
2018-08-31T05:53:03.376Z,2.90
2018-08-31T05:55:31.932Z,2.63
2018-08-31T05:58:00.344Z,2.40
2018-08-31T06:00:28.965Z,2.83
2018-08-31T06:02:57.588Z,3.00
2018-08-31T06:05:26.253Z,2.90
2018-08-31T06:07:54.612Z,2.67
2018-08-31T06:10:22.960Z,2.40
2018-08-31T06:12:51.337Z,3.57
2018-08-31T06:15:19.705Z,3.10
2018-08-31T06:17:48.172Z,3.10
2018-08-31T06:20:16.558Z,3.80
2018-08-31T06:22:44.916Z,2.97
2018-08-31T06:25:13.297Z,3.00
2018-08-31T06:27:41.726Z,3.07
2018-08-31T06:30:10.103Z,3.10
2018-08-31T06:32:38.542Z,3.10
2018-08-31T06:35:06.973Z,3.00
2018-08-31T06:37:35.326Z,3.20
2018-08-31T06:40:03.754Z,2.60
2018-08-31T06:42:32.144Z,3.40
2018-08-31T06:45:00.533Z,3.37
2018-08-31T06:47:28.881Z,3.27
2018-08-31T06:49:57.261Z,2.80
2018-08-31T06:52:25.629Z,3.33
2018-08-31T06:54:54.102Z,3.00
2018-08-31T06:57:22.666Z,2.80
2018-08-31T06:59:51.045Z,3.20
2018-08-31T07:02:19.383Z,2.93
2018-08-31T07:04:47.762Z,3.13
2018-08-31T07:07:16.152Z,2.90
2018-08-31T07:09:44.532Z,2.90
2018-08-31T07:12:12.935Z,2.80
2018-08-31T07:14:41.337Z,3.63
2018-08-31T07:17:09.691Z,3.03
2018-08-31T07:19:38.333Z,3.13
2018-08-31T07:22:06.732Z,2.93
2018-08-31T07:24:35.101Z,2.97
2018-08-31T07:27:03.485Z,2.80
2018-08-31T07:29:31.880Z,2.77
2018-08-31T07:32:00.253Z,2.90
2018-08-31T07:34:28.649Z,3.10
2018-08-31T07:36:57.009Z,2.70
2018-08-31T07:39:25.406Z,2.83
2018-08-31T07:41:53.778Z,2.37
2018-08-31T07:44:22.180Z,2.70
2018-08-31T07:46:50.693Z,2.90
2018-08-31T07:49:19.097Z,2.50
2018-08-31T07:51:47.478Z,2.50
2018-08-31T07:54:15.875Z,2.37
2018-08-31T07:56:44.457Z,2.50
2018-08-31T07:59:12.893Z,2.60
2018-08-31T08:01:41.254Z,2.63
2018-08-31T08:04:09.633Z,2.60
2018-08-31T08:06:38.005Z,3.10
2018-08-31T08:09:08.129Z,2.53
2018-08-31T08:11:36.606Z,2.30
2018-08-31T08:14:05.030Z,2.47
2018-08-31T08:16:33.402Z,2.20
2018-08-31T08:19:01.817Z,2.40
2018-08-31T08:21:30.485Z,2.33
2018-08-31T08:23:58.870Z,2.10
2018-08-31T08:26:27.276Z,2.17
2018-08-31T08:28:55.620Z,2.30
2018-08-31T08:31:23.993Z,2.90
2018-08-31T08:33:52.385Z,2.17
2018-08-31T08:36:20.788Z,2.27
2018-08-31T08:38:49.141Z,2.43
2018-08-31T08:41:17.549Z,2.30
2018-08-31T08:43:46.037Z,1.97
2018-08-31T08:46:14.449Z,2.33
2018-08-31T08:48:42.974Z,2.20
2018-08-31T08:51:11.265Z,2.40
2018-08-31T08:53:39.625Z,2.20
2018-08-31T08:56:08.187Z,2.60
2018-08-31T08:58:36.565Z,2.50
2018-08-31T09:01:04.977Z,2.50
2018-08-31T09:03:33.334Z,2.27
2018-08-31T09:06:01.712Z,2.60
2018-08-31T09:08:30.060Z,2.27
2018-08-31T09:10:58.436Z,2.47
2018-08-31T09:13:26.861Z,2.00
2018-08-31T09:15:55.241Z,2.03
2018-08-31T09:18:26.804Z,2.03
2018-08-31T09:20:55.849Z,2.20
2018-08-31T09:23:24.401Z,2.13
2018-08-31T09:25:53.342Z,1.93
2018-08-31T09:28:21.784Z,2.27
2018-08-31T09:30:50.212Z,2.20
2018-08-31T09:33:18.633Z,2.17
2018-08-31T09:35:47.093Z,2.00
2018-08-31T09:38:15.513Z,1.93
2018-08-31T09:40:43.868Z,1.80
2018-08-31T09:43:12.208Z,2.00
2018-08-31T09:45:40.613Z,1.73
2018-08-31T09:48:08.961Z,1.27
2018-08-31T09:50:37.369Z,1.20
2018-08-31T09:53:05.764Z,1.60
2018-08-31T09:55:34.144Z,1.20
2018-08-31T09:58:02.553Z,1.27
2018-08-31T10:00:36.514Z,1.23
2018-08-31T10:03:05.952Z,1.30
2018-08-31T10:05:34.410Z,1.53
2018-08-31T10:08:02.794Z,1.40
2018-08-31T10:10:31.166Z,1.40
2018-08-31T10:12:59.857Z,1.30
2018-08-31T10:15:28.244Z,1.40
2018-08-31T10:17:56.647Z,1.33
2018-08-31T10:20:25.029Z,1.20
2018-08-31T10:22:53.421Z,1.40
2018-08-31T10:25:21.785Z,1.30
2018-08-31T10:27:50.272Z,1.53
2018-08-31T10:30:18.660Z,1.47
2018-08-31T10:32:47.079Z,1.43
2018-08-31T10:35:15.461Z,1.30
2018-08-31T10:37:43.880Z,1.10
2018-08-31T10:40:12.296Z,1.10
2018-08-31T10:42:40.682Z,1.20
2018-08-31T10:45:09.366Z,1.40
2018-08-31T10:47:39.595Z,1.13
2018-08-31T10:50:09.520Z,1.20
2018-08-31T10:52:38.898Z,1.33
2018-08-31T10:55:08.040Z,1.30
2018-08-31T10:57:37.376Z,1.30
2018-08-31T11:00:06.570Z,2.10
2018-08-31T11:02:35.028Z,1.43
2018-08-31T11:05:03.491Z,3.40
2018-08-31T11:07:32.083Z,2.50
2018-08-31T11:10:00.498Z,1.57
2018-08-31T11:12:28.914Z,2.13
2018-08-31T11:14:57.325Z,2.93
2018-08-31T11:17:25.725Z,2.10
2018-08-31T11:19:54.312Z,1.50
2018-08-31T11:22:22.717Z,1.60
2018-08-31T11:24:51.121Z,1.50
2018-08-31T11:27:19.556Z,1.40
2018-08-31T11:29:48.261Z,1.30
2018-08-31T11:32:16.661Z,1.30
2018-08-31T11:34:45.141Z,1.40
2018-08-31T11:37:13.570Z,1.27
2018-08-31T11:39:41.945Z,1.20
2018-08-31T11:42:10.442Z,1.70
2018-08-31T11:44:38.820Z,1.20
2018-08-31T11:47:07.239Z,1.60
2018-08-31T11:49:35.737Z,1.50
2018-08-31T11:52:04.151Z,1.47
2018-08-31T11:54:32.602Z,1.10
2018-08-31T11:57:01.036Z,1.10
2018-08-31T11:59:29.413Z,1.00
2018-08-31T12:01:59.936Z,1.30
2018-08-31T12:04:28.333Z,1.43
2018-08-31T12:06:56.708Z,1.40
2018-08-31T12:09:25.102Z,1.23
2018-08-31T12:11:53.471Z,1.20
2018-08-31T12:14:21.877Z,1.53
2018-08-31T12:16:50.286Z,1.50
2018-08-31T12:19:18.721Z,1.30
2018-08-31T12:21:47.103Z,1.20
2018-08-31T12:24:15.512Z,1.40
2018-08-31T12:26:43.927Z,1.37
2018-08-31T12:29:12.336Z,1.20
2018-08-31T12:31:40.717Z,1.33
2018-08-31T12:34:09.111Z,1.43
2018-08-31T12:36:37.497Z,1.40
2018-08-31T12:39:07.971Z,1.40
2018-08-31T12:41:36.356Z,1.27
2018-08-31T12:44:04.802Z,1.40
2018-08-31T12:46:33.165Z,1.20
2018-08-31T12:49:01.614Z,1.13
2018-08-31T12:51:29.996Z,1.33
2018-08-31T12:53:58.406Z,1.10
2018-08-31T12:56:26.789Z,1.10
2018-08-31T12:58:55.235Z,1.20
2018-08-31T13:01:23.637Z,1.17
2018-08-31T13:03:52.047Z,1.47
2018-08-31T13:06:20.729Z,1.27
2018-08-31T13:08:49.145Z,1.20
2018-08-31T13:11:17.524Z,1.33
2018-08-31T13:13:45.928Z,1.17
2018-08-31T13:16:14.329Z,1.30
2018-08-31T13:18:42.748Z,1.20
2018-08-31T13:21:11.145Z,1.20
2018-08-31T13:23:39.589Z,1.03
2018-08-31T13:26:08.007Z,1.60
2018-08-31T13:28:36.453Z,0.87
2018-08-31T13:31:04.826Z,1.23
2018-08-31T13:33:33.221Z,1.50
2018-08-31T13:36:01.617Z,1.33
2018-08-31T13:38:30.042Z,1.30
2018-08-31T13:40:58.534Z,1.57
2018-08-31T13:43:26.988Z,1.37
2018-08-31T13:45:55.399Z,1.23
2018-08-31T13:48:23.782Z,1.53
2018-08-31T13:50:52.162Z,1.30
2018-08-31T13:53:20.561Z,1.40
2018-08-31T13:55:48.995Z,1.27
2018-08-31T13:58:17.503Z,1.40
2018-08-31T14:00:45.832Z,1.10
2018-08-31T14:03:14.232Z,1.23
2018-08-31T14:05:42.645Z,1.30
2018-08-31T14:08:11.150Z,1.20
2018-08-31T14:10:39.551Z,1.60
2018-08-31T14:13:07.927Z,1.30
2018-08-31T14:15:36.328Z,1.27
2018-08-31T14:18:04.702Z,1.30
2018-08-31T14:20:33.102Z,1.20
2018-08-31T14:23:01.479Z,1.50
2018-08-31T14:25:29.893Z,1.40
2018-08-31T14:27:58.330Z,1.37
2018-08-31T14:30:26.909Z,1.63
2018-08-31T14:32:55.287Z,1.40
2018-08-31T14:35:23.694Z,1.43
2018-08-31T14:37:52.115Z,1.30
2018-08-31T14:40:20.526Z,1.30
2018-08-31T14:42:48.881Z,1.27
2018-08-31T14:45:17.298Z,1.40
2018-08-31T14:47:45.736Z,1.60
2018-08-31T14:50:14.164Z,1.57
2018-08-31T14:52:42.545Z,1.40
2018-08-31T14:55:10.957Z,1.40
2018-08-31T14:57:39.407Z,1.30
2018-08-31T15:00:07.825Z,1.50
2018-08-31T15:02:36.278Z,1.27
2018-08-31T15:05:04.686Z,1.47
2018-08-31T15:07:33.052Z,1.33
2018-08-31T15:10:01.472Z,1.20
2018-08-31T15:12:29.840Z,1.30
2018-08-31T15:14:58.225Z,1.33
2018-08-31T15:17:26.654Z,1.40
2018-08-31T15:19:55.036Z,1.23
2018-08-31T15:22:23.410Z,1.30
2018-08-31T15:24:51.792Z,1.10
2018-08-31T15:27:20.178Z,1.37
2018-08-31T15:29:48.564Z,1.20
2018-08-31T15:32:17.077Z,1.13
2018-08-31T15:34:45.508Z,1.30
2018-08-31T15:37:14.038Z,1.20
2018-08-31T15:39:42.433Z,1.10
2018-08-31T15:42:10.903Z,1.50
2018-08-31T15:44:39.259Z,1.47
2018-08-31T15:47:07.650Z,1.50
2018-08-31T15:49:36.123Z,1.23
2018-08-31T15:52:04.469Z,1.47
2018-08-31T15:54:32.853Z,1.17
2018-08-31T15:57:01.259Z,1.60
2018-08-31T15:59:29.640Z,1.30
2018-08-31T16:01:58.048Z,1.50
2018-08-31T16:04:26.411Z,1.40
2018-08-31T16:06:54.824Z,1.23
2018-08-31T16:09:23.253Z,1.50
2018-08-31T16:11:51.682Z,1.47
2018-08-31T16:14:20.053Z,1.40
2018-08-31T16:16:48.469Z,1.37
2018-08-31T16:19:16.845Z,1.30
2018-08-31T16:21:45.332Z,1.20
2018-08-31T16:24:13.955Z,1.50
2018-08-31T16:26:42.421Z,1.30
2018-08-31T16:29:10.801Z,1.70
2018-08-31T16:31:39.266Z,1.63
2018-08-31T16:34:07.939Z,1.57
2018-08-31T16:36:36.347Z,1.10
2018-08-31T16:39:06.195Z,1.30
2018-08-31T16:41:34.632Z,1.60
2018-08-31T16:44:03.017Z,1.80
2018-08-31T16:46:31.418Z,1.60
2018-08-31T16:48:59.832Z,1.20
2018-08-31T16:51:28.250Z,1.20
2018-08-31T16:53:56.653Z,1.07
2018-08-31T16:56:25.245Z,1.17
2018-08-31T16:58:53.638Z,1.30
2018-08-31T17:01:22.036Z,1.30
2018-08-31T17:03:50.458Z,1.10
2018-08-31T17:06:18.914Z,1.40
2018-08-31T17:08:47.324Z,1.30
2018-08-31T17:11:15.778Z,1.17
2018-08-31T17:13:44.175Z,1.30
2018-08-31T17:16:12.591Z,1.20
2018-08-31T17:18:41.111Z,1.20
2018-08-31T17:21:09.625Z,1.10
2018-08-31T17:23:38.190Z,1.50
2018-08-31T17:26:06.658Z,1.17
2018-08-31T17:28:40.491Z,1.13
2018-08-31T17:31:14.229Z,1.17
2018-08-31T17:33:47.889Z,1.03
2018-08-31T17:36:21.588Z,1.20
2018-08-31T17:38:49.992Z,1.40
2018-08-31T17:41:18.390Z,1.20
2018-08-31T17:43:46.794Z,1.30
2018-08-31T17:46:15.241Z,1.30
2018-08-31T17:48:43.665Z,1.50
2018-08-31T17:51:12.089Z,1.27
2018-08-31T17:53:40.556Z,1.30
2018-08-31T17:56:08.973Z,1.10
2018-08-31T17:58:37.388Z,1.50
2018-08-31T18:01:06.314Z,1.27
2018-08-31T18:03:34.726Z,1.40
2018-08-31T18:06:03.087Z,1.20
2018-08-31T18:08:31.538Z,1.43
2018-08-31T18:11:00.023Z,1.30
2018-08-31T18:13:28.950Z,1.30
2018-08-31T18:15:57.423Z,1.33
2018-08-31T18:18:25.773Z,1.30
2018-08-31T18:20:54.300Z,1.77
2018-08-31T18:23:22.698Z,1.37
2018-08-31T18:25:51.142Z,1.60
2018-08-31T18:28:19.478Z,1.50
2018-08-31T18:30:47.841Z,1.37
2018-08-31T18:33:17.070Z,1.20
2018-08-31T18:35:45.646Z,1.40
2018-08-31T18:38:14.038Z,1.90
2018-08-31T18:40:42.407Z,1.50
2018-08-31T18:43:10.807Z,1.30
2018-08-31T18:45:39.226Z,1.57
2018-08-31T18:48:07.605Z,1.73
2018-08-31T18:50:35.962Z,1.30
2018-08-31T18:53:04.472Z,1.30
2018-08-31T18:55:32.858Z,1.40
2018-08-31T18:58:01.941Z,1.40
2018-08-31T19:00:30.410Z,1.50
2018-08-31T19:02:59.845Z,1.73
2018-08-31T19:05:28.209Z,1.53
2018-08-31T19:07:59.523Z,1.60
2018-08-31T19:10:28.258Z,1.60
2018-08-31T19:12:56.709Z,1.40
2018-08-31T19:15:25.053Z,1.60
2018-08-31T19:17:53.534Z,1.60
2018-08-31T19:20:21.928Z,1.63
2018-08-31T19:22:50.298Z,1.70
2018-08-31T19:25:18.677Z,1.50
2018-08-31T19:27:47.054Z,1.60
2018-08-31T19:30:15.445Z,1.57
2018-08-31T19:32:43.813Z,1.63
2018-08-31T19:35:12.225Z,1.50
2018-08-31T19:37:40.600Z,1.23
2018-08-31T19:40:08.991Z,1.40
2018-08-31T19:42:37.340Z,1.57
2018-08-31T19:45:06.843Z,1.83
2018-08-31T19:47:35.262Z,1.90
2018-08-31T19:50:03.687Z,1.80
2018-08-31T19:52:32.023Z,1.70
2018-08-31T19:55:00.749Z,1.53
2018-08-31T19:57:29.241Z,1.77
2018-08-31T19:59:57.645Z,1.70
2018-08-31T20:02:26.065Z,1.73
2018-08-31T20:04:54.469Z,1.80
2018-08-31T20:07:22.833Z,1.80
2018-08-31T20:09:51.212Z,1.73
2018-08-31T20:12:19.589Z,1.83
2018-08-31T20:14:48.013Z,1.80
2018-08-31T20:17:16.389Z,1.70
2018-08-31T20:19:44.795Z,1.57
2018-08-31T20:22:13.410Z,1.93
2018-08-31T20:24:41.818Z,1.70
2018-08-31T20:27:10.208Z,1.70
2018-08-31T20:29:39.676Z,1.80
2018-08-31T20:32:08.048Z,1.50
2018-08-31T20:34:36.418Z,1.60
2018-08-31T20:37:04.839Z,1.60
2018-08-31T20:39:33.317Z,1.70
2018-08-31T20:42:01.696Z,1.83
2018-08-31T20:44:30.177Z,2.10
2018-08-31T20:46:59.704Z,1.70
2018-08-31T20:49:28.102Z,1.80
2018-08-31T20:51:56.462Z,1.73
2018-08-31T20:54:24.825Z,2.00
2018-08-31T20:56:53.210Z,2.10
2018-08-31T20:59:21.581Z,2.10
2018-08-31T21:01:50.007Z,1.87
2018-08-31T21:04:21.051Z,2.43
2018-08-31T21:06:49.893Z,2.20
2018-08-31T21:09:18.248Z,2.23
2018-08-31T21:11:49.412Z,2.00
2018-08-31T21:14:20.245Z,2.03
2018-08-31T21:16:51.047Z,2.43
2018-08-31T21:19:19.680Z,1.90
2018-08-31T21:21:48.402Z,1.97
2018-08-31T21:24:16.761Z,2.43
2018-08-31T21:26:45.184Z,2.23
2018-08-31T21:29:13.701Z,2.07
2018-08-31T21:31:42.289Z,2.03
2018-08-31T21:34:11.235Z,2.03
2018-08-31T21:36:39.786Z,2.13
2018-08-31T21:39:09.140Z,2.53
2018-08-31T21:41:38.879Z,1.90
2018-08-31T21:44:07.498Z,2.20
2018-08-31T21:46:36.107Z,2.40
2018-08-31T21:49:04.746Z,2.30
2018-08-31T21:51:33.563Z,2.00
2018-08-31T21:54:02.109Z,2.07
2018-08-31T21:56:31.505Z,1.97
2018-08-31T21:59:00.130Z,1.90
2018-08-31T22:01:33.983Z,1.80
2018-08-31T22:04:02.860Z,1.80
2018-08-31T22:06:31.673Z,2.10
2018-08-31T22:09:00.111Z,1.90
2018-08-31T22:11:28.832Z,2.00
2018-08-31T22:13:57.380Z,2.30
2018-08-31T22:16:26.069Z,1.67
2018-08-31T22:18:54.768Z,1.80
2018-08-31T22:21:23.504Z,2.10
2018-08-31T22:23:52.115Z,1.83
2018-08-31T22:26:20.996Z,1.87
2018-08-31T22:28:49.593Z,1.87
2018-08-31T22:31:18.165Z,1.90
2018-08-31T22:33:46.872Z,2.07
2018-08-31T22:36:15.652Z,2.00
2018-08-31T22:38:44.305Z,2.10
2018-08-31T22:41:13.122Z,1.80
2018-08-31T22:43:47.091Z,1.70
2018-08-31T22:46:15.636Z,2.10
2018-08-31T22:48:44.302Z,2.10
2018-08-31T22:51:13.241Z,2.00
2018-08-31T22:53:41.853Z,2.00
2018-08-31T22:56:10.193Z,2.03
2018-08-31T22:58:38.599Z,1.90
2018-08-31T23:01:06.991Z,1.80
2018-08-31T23:03:35.367Z,1.80
2018-08-31T23:06:03.720Z,1.90
2018-08-31T23:08:32.144Z,2.00
2018-08-31T23:11:00.531Z,1.93
2018-08-31T23:13:28.929Z,1.70
2018-08-31T23:15:57.305Z,2.10
2018-08-31T23:18:25.689Z,1.93
2018-08-31T23:20:54.045Z,1.80
2018-08-31T23:23:28.249Z,2.30
2018-08-31T23:25:56.604Z,2.20
2018-08-31T23:28:24.995Z,1.93
2018-08-31T23:30:53.476Z,2.20
2018-08-31T23:33:22.124Z,2.23
2018-08-31T23:35:50.924Z,2.37
2018-08-31T23:38:19.564Z,2.37
2018-08-31T23:40:48.169Z,2.30
2018-08-31T23:43:16.801Z,2.50
2018-08-31T23:45:45.416Z,2.20
2018-08-31T23:48:14.083Z,2.10
2018-08-31T23:50:42.814Z,2.30
2018-08-31T23:53:11.403Z,2.03
2018-08-31T23:55:39.983Z,1.70
2018-08-31T23:58:08.853Z,2.20
